Time;durP1;ratioP1;P1;durP2;ratioP2;P2;SDS_P1;SDS_P2;PMS_P1;PMS_P2;Temp;Humidity;BMP_temperature;BMP_pressure;BME280_temperature;BME280_humidity;BME280_pressure;Samples;Min_cycle;Max_cycle;Signal;HPM_P1;HPM_P2
2021/08/01 00:00:31;;;;;;;11.53;8.83;;;;;;;20.59;75.96;99740.02;1708167;84;21806;-83
2021/08/01 00:03:37;;;;;;;11.05;8.68;;;;;;;20.61;75.16;99740.07;1707339;84;21636;-82
2021/08/01 00:06:43;;;;;;;10.82;8.60;;;;;;;20.65;74.82;99754.27;1710850;81;21214;-82
2021/08/01 00:09:49;;;;;;;9.90;8.35;;;;;;;20.67;74.70;99754.31;1732716;83;21212;-82
2021/08/01 00:12:55;;;;;;;9.70;8.58;;;;;;;20.71;74.34;99745.48;1733571;83;21304;-82
2021/08/01 00:16:01;;;;;;;17.17;8.60;;;;;;;20.72;73.86;99748.55;1733657;83;21914;-83
2021/08/01 00:19:06;;;;;;;13.05;8.85;;;;;;;20.74;73.58;99747.72;1732613;83;21307;-82
2021/08/01 00:22:12;;;;;;;15.10;8.40;;;;;;;20.75;73.24;99751.66;1733342;83;21347;-82
2021/08/01 00:25:20;;;;;;;11.03;8.03;;;;;;;20.76;72.91;99751.10;1732190;82;21770;-82
2021/08/01 00:28:25;;;;;;;12.65;8.33;;;;;;;20.77;72.70;99748.61;1733125;83;21898;-82
2021/08/01 00:31:30;;;;;;;8.33;7.30;;;;;;;20.75;72.52;99748.87;1733440;83;21327;-82
2021/08/01 00:34:36;;;;;;;9.95;8.68;;;;;;;20.74;72.50;99749.11;1733295;83;21838;-82
2021/08/01 00:37:41;;;;;;;10.65;8.28;;;;;;;20.74;72.64;99753.28;1733364;83;21510;-83
2021/08/01 00:40:46;;;;;;;10.18;8.03;;;;;;;20.74;72.51;99751.34;1733372;83;21791;-82
2021/08/01 00:43:53;;;;;;;11.65;8.90;;;;;;;20.73;72.20;99747.44;1734349;83;21318;-83
2021/08/01 00:46:57;;;;;;;10.15;8.58;;;;;;;20.73;71.80;99753.00;1733635;83;21299;-82
2021/08/01 00:50:05;;;;;;;14.65;8.20;;;;;;;20.72;71.73;99751.32;1732016;83;21220;-82
2021/08/01 00:53:10;;;;;;;14.45;7.67;;;;;;;20.72;71.77;99752.71;1733760;83;21239;-82
2021/08/01 00:56:17;;;;;;;10.65;7.87;;;;;;;20.69;71.87;99751.27;1715771;83;21772;-82
2021/08/01 00:59:23;;;;;;;18.10;8.18;;;;;;;20.66;71.89;99749.86;1734181;83;21313;-82
2021/08/01 01:02:32;;;;;;;12.25;7.62;;;;;;;20.66;72.28;99754.03;1732239;83;21318;-82
2021/08/01 01:05:43;;;;;;;10.85;8.23;;;;;;;20.64;72.62;99749.81;1733417;83;21295;-82
2021/08/01 01:09:07;;;;;;;10.23;8.08;;;;;;;20.61;72.75;99753.96;1742868;80;21200;-83
2021/08/01 01:12:26;;;;;;;9.10;8.18;;;;;;;20.59;72.84;99753.36;1751539;82;22556;-82
2021/08/01 01:15:33;;;;;;;9.73;7.70;;;;;;;20.58;72.67;99746.12;1752807;82;22610;-82
2021/08/01 01:18:46;;;;;;;10.85;8.23;;;;;;;20.57;72.62;99750.01;1751494;82;21301;-82
2021/08/01 01:22:04;;;;;;;10.95;8.55;;;;;;;20.54;72.77;99748.28;1752437;82;21961;-82
2021/08/01 01:25:45;;;;;;;16.37;9.58;;;;;;;20.50;73.04;99748.49;1749709;82;21302;-83
2021/08/01 01:28:55;;;;;;;11.45;8.88;;;;;;;20.46;73.49;99755.62;1752455;82;21199;-82
2021/08/01 01:32:18;;;;;;;9.80;8.80;;;;;;;20.41;73.31;99754.98;1752631;82;21845;-83
2021/08/01 01:35:26;;;;;;;11.30;8.68;;;;;;;20.41;73.31;99754.98;1752627;82;21743;-83
2021/08/01 01:38:32;;;;;;;9.90;8.43;;;;;;;20.39;73.76;99764.98;1753234;82;21365;-83
2021/08/01 01:41:55;;;;;;;9.48;8.30;;;;;;;20.40;73.78;99761.65;1734856;82;21307;-82
2021/08/01 01:45:08;;;;;;;10.85;8.40;;;;;;;20.41;73.70;99761.38;1751383;82;21262;-82
2021/08/01 01:48:13;;;;;;;11.05;8.30;;;;;;;20.41;73.63;99759.16;1751054;82;21317;-82
2021/08/01 01:51:20;;;;;;;13.22;8.55;;;;;;;20.42;73.54;99764.48;1724422;82;21810;-82
2021/08/01 01:54:24;;;;;;;10.68;8.45;;;;;;;20.42;73.72;99774.75;1752534;82;21180;-82
2021/08/01 01:57:31;;;;;;;13.80;8.75;;;;;;;20.43;73.67;99773.09;1752469;82;21310;-82
2021/08/01 02:00:37;;;;;;;12.30;8.60;;;;;;;20.45;73.75;99770.61;1751121;82;21329;-82
2021/08/01 02:03:44;;;;;;;11.57;8.48;;;;;;;20.46;74.00;99773.13;1752650;82;21306;-83
2021/08/01 02:07:07;;;;;;;15.30;8.53;;;;;;;20.44;74.16;99769.77;1752385;82;21819;-83
2021/08/01 02:10:30;;;;;;;11.15;8.88;;;;;;;20.39;74.45;99768.30;1751906;80;21203;-82
2021/08/01 02:13:55;;;;;;;11.25;8.55;;;;;;;20.39;74.87;99768.30;1752525;82;21302;-82
2021/08/01 02:17:01;;;;;;;12.37;8.90;;;;;;;20.39;75.26;99771.92;1752391;82;21298;-83
2021/08/01 02:20:10;;;;;;;15.23;9.80;;;;;;;20.40;75.50;99770.81;1751686;82;21326;-83
2021/08/01 02:23:38;;;;;;;10.50;8.33;;;;;;;20.42;75.56;99779.75;1747784;82;21325;-82
2021/08/01 02:26:44;;;;;;;11.88;9.53;;;;;;;20.45;75.60;99785.88;1752357;82;21294;-82
2021/08/01 02:29:49;;;;;;;15.20;9.68;;;;;;;20.43;75.61;99783.38;1752134;82;21833;-82
2021/08/01 02:32:54;;;;;;;12.03;9.20;;;;;;;20.44;75.72;99787.83;1724346;82;21185;-82
2021/08/01 02:35:59;;;;;;;15.83;9.93;;;;;;;20.43;75.85;99788.92;1752511;82;21348;-83
2021/08/01 02:39:06;;;;;;;15.05;10.23;;;;;;;20.45;75.81;99790.89;1750856;82;21317;-82
2021/08/01 02:42:11;;;;;;;16.27;10.10;;;;;;;20.51;75.70;99793.23;1752674;82;21286;-83
2021/08/01 02:45:19;;;;;;;11.30;9.18;;;;;;;20.59;75.43;99790.86;1711869;84;21280;-82
2021/08/01 02:48:25;;;;;;;12.80;9.38;;;;;;;20.72;74.94;99791.62;1735476;82;21242;-82
2021/08/01 02:51:32;;;;;;;16.27;9.03;;;;;;;20.78;74.54;99796.14;1735724;82;21330;-83
2021/08/01 02:54:38;;;;;;;23.40;9.88;;;;;;;20.82;74.21;99795.92;1736815;82;21314;-83
2021/08/01 02:57:44;;;;;;;13.43;9.18;;;;;;;20.88;73.90;99796.28;1736958;82;21211;-82
2021/08/01 03:00:50;;;;;;;18.45;10.20;;;;;;;20.96;73.56;99799.18;1721443;82;21326;-82
2021/08/01 03:03:56;;;;;;;11.10;9.15;;;;;;;21.04;73.35;99797.35;1737011;82;21315;-82
2021/08/01 03:07:02;;;;;;;13.53;9.70;;;;;;;21.11;73.09;99800.77;1736986;82;21196;-82
2021/08/01 03:10:07;;;;;;;13.72;8.63;;;;;;;21.21;72.62;99803.68;1737934;81;21802;-82
2021/08/01 03:13:14;;;;;;;11.78;9.55;;;;;;;21.29;73.36;99807.96;1736462;82;21363;-82
2021/08/01 03:16:21;;;;;;;15.58;11.68;;;;;;;21.31;73.40;99803.00;1735876;82;21191;-82
2021/08/01 03:19:27;;;;;;;20.15;12.10;;;;;;;21.47;73.44;99814.62;1711787;84;21303;-82
2021/08/01 03:22:34;;;;;;;16.30;12.37;;;;;;;21.76;73.09;99816.61;1736949;82;21236;-82
2021/08/01 03:25:41;;;;;;;15.55;10.82;;;;;;;22.14;72.14;99812.02;1737017;82;21326;-82
2021/08/01 03:28:47;;;;;;;16.60;10.90;;;;;;;22.55;71.25;99813.20;1711975;84;21316;-82
2021/08/01 03:31:52;;;;;;;13.38;10.15;;;;;;;22.87;70.65;99815.10;1736127;82;21184;-83
2021/08/01 03:34:58;;;;;;;19.37;10.95;;;;;;;23.08;70.05;99816.91;1736698;82;21841;-83
2021/08/01 03:38:05;;;;;;;17.32;11.90;;;;;;;23.17;68.51;99816.69;1709935;84;21850;-82
2021/08/01 03:41:13;;;;;;;17.48;11.65;;;;;;;23.20;67.96;99815.31;1619299;85;21325;-82
2021/08/01 03:44:18;;;;;;;15.35;12.07;;;;;;;23.24;67.86;99815.59;1736785;82;21189;-82
2021/08/01 03:47:22;;;;;;;18.45;12.13;;;;;;;23.37;67.52;99819.28;1737558;82;21311;-83
2021/08/01 03:50:28;;;;;;;15.55;11.93;;;;;;;23.58;67.10;99820.22;1711831;84;21188;-83
2021/08/01 03:53:33;;;;;;;22.87;12.93;;;;;;;23.82;67.28;99829.81;1736706;82;21327;-82
2021/08/01 03:56:39;;;;;;;18.07;13.20;;;;;;;24.04;66.98;99832.91;1736909;82;22609;-83
2021/08/01 03:59:44;;;;;;;15.98;13.58;;;;;;;24.26;67.22;99833.50;1711834;84;21315;-82
2021/08/01 04:02:50;;;;;;;18.23;13.78;;;;;;;24.47;66.64;99827.41;1736650;82;21307;-82
2021/08/01 04:05:56;;;;;;;19.95;11.95;;;;;;;24.66;66.23;99822.92;1736741;82;21294;-82
2021/08/01 04:09:06;;;;;;;14.07;10.20;;;;;;;24.76;67.17;99826.27;1735720;82;21259;-82
2021/08/01 04:12:11;;;;;;;16.15;11.05;;;;;;;24.81;66.61;99825.42;1710527;83;21219;-82
2021/08/01 04:15:19;;;;;;;15.15;10.25;;;;;;;24.85;66.36;99830.73;1736875;82;21173;-82
2021/08/01 04:18:24;;;;;;;14.70;10.10;;;;;;;24.90;66.67;99834.92;1736693;82;21201;-82
2021/08/01 04:21:30;;;;;;;12.55;10.60;;;;;;;24.95;66.43;99827.92;1711449;84;21362;-82
2021/08/01 04:24:35;;;;;;;12.05;10.28;;;;;;;24.91;66.87;99829.59;1735568;82;21196;-82
2021/08/01 04:27:41;;;;;;;17.25;10.48;;;;;;;24.94;67.18;99824.28;1736745;82;21731;-83
2021/08/01 04:30:48;;;;;;;13.13;10.15;;;;;;;25.10;66.70;99827.06;1735646;82;21306;-82
2021/08/01 04:33:54;;;;;;;13.50;10.93;;;;;;;25.23;66.04;99818.08;1736968;82;21303;-82
2021/08/01 04:37:00;;;;;;;14.13;10.45;;;;;;;25.37;65.85;99817.75;1736914;82;21288;-82
2021/08/01 04:40:05;;;;;;;14.83;10.38;;;;;;;25.45;65.54;99812.96;1736702;82;21942;-83
2021/08/01 04:43:11;;;;;;;12.75;10.68;;;;;;;25.52;65.17;99808.44;1735860;82;21192;-82
2021/08/01 04:46:16;;;;;;;17.55;9.88;;;;;;;25.71;64.59;99809.45;1737077;82;21261;-82
2021/08/01 04:49:21;;;;;;;12.80;10.60;;;;;;;25.97;63.58;99820.53;1736724;82;21295;-82
2021/08/01 04:52:26;;;;;;;12.37;10.13;;;;;;;26.11;63.28;99815.98;1735629;82;21196;-83
2021/08/01 04:55:32;;;;;;;13.53;8.65;;;;;;;26.26;63.84;99820.63;1711061;84;21260;-83
2021/08/01 04:58:38;;;;;;;11.35;9.83;;;;;;;26.35;63.23;99813.27;1736709;82;21173;-82
2021/08/01 05:01:43;;;;;;;13.65;9.78;;;;;;;26.41;63.61;99812.66;1735918;82;21951;-83
2021/08/01 05:04:48;;;;;;;11.95;9.55;;;;;;;26.50;63.50;99813.73;1736872;82;21252;-83
2021/08/01 05:07:55;;;;;;;10.82;8.68;;;;;;;26.59;63.42;99811.97;1731497;82;21298;-83
2021/08/01 05:11:00;;;;;;;13.20;8.28;;;;;;;26.72;62.47;99810.42;1739516;82;21266;-82
2021/08/01 05:14:06;;;;;;;11.00;8.50;;;;;;;26.74;60.96;99811.81;1742709;82;21280;-82
2021/08/01 05:17:12;;;;;;;11.97;8.33;;;;;;;26.73;60.48;99809.32;1744254;82;21326;-82
2021/08/01 05:20:16;;;;;;;9.10;7.95;;;;;;;26.79;60.97;99817.95;1731952;82;21920;-82
2021/08/01 05:23:22;;;;;;;8.63;7.72;;;;;;;26.96;60.41;99815.53;1743453;82;21330;-82
2021/08/01 05:26:28;;;;;;;12.37;7.25;;;;;;;27.13;60.81;99816.48;1744365;82;21259;-82
2021/08/01 05:29:35;;;;;;;14.00;7.33;;;;;;;27.24;59.97;99817.20;1748816;82;21278;-82
2021/08/01 05:32:44;;;;;;;7.70;6.90;;;;;;;27.29;59.30;99819.97;1742649;82;21377;-82
2021/08/01 05:35:50;;;;;;;7.72;6.42;;;;;;;27.40;57.67;99830.50;1743765;82;21331;-82
2021/08/01 05:38:55;;;;;;;8.60;7.17;;;;;;;27.50;56.55;99828.39;1754640;82;21695;-82
2021/08/01 05:42:02;;;;;;;10.35;7.80;;;;;;;27.63;56.76;99822.62;1742358;82;21326;-82
2021/08/01 05:45:07;;;;;;;10.32;7.35;;;;;;;27.80;57.35;99830.55;1752908;82;21366;-82
2021/08/01 05:48:13;;;;;;;7.55;6.20;;;;;;;27.94;56.31;99832.87;1742577;82;21333;-82
2021/08/01 05:51:20;;;;;;;9.18;6.83;;;;;;;28.07;55.12;99836.09;1752931;82;21742;-82
2021/08/01 05:54:25;;;;;;;7.33;5.83;;;;;;;28.22;53.66;99838.08;1742661;82;21787;-82
2021/08/01 05:57:32;;;;;;;8.45;5.70;;;;;;;28.42;53.21;99834.71;1753194;82;21414;-82
2021/08/01 06:00:37;;;;;;;11.40;5.80;;;;;;;28.55;51.41;99831.70;1754517;80;21332;-82
2021/08/01 06:03:42;;;;;;;8.05;5.25;;;;;;;28.70;50.28;99835.10;1743371;82;21179;-82
2021/08/01 06:06:48;;;;;;;6.10;5.20;;;;;;;28.70;50.28;99835.10;1753249;82;21381;-82
2021/08/01 06:09:53;;;;;;;7.70;5.85;;;;;;;28.78;48.97;99842.81;1744525;82;21795;-82
2021/08/01 06:12:59;;;;;;;9.58;5.50;;;;;;;28.83;49.93;99829.80;1754898;82;21318;-82
2021/08/01 06:16:05;;;;;;;7.72;5.30;;;;;;;29.01;49.83;99824.13;1744649;82;21350;-82
2021/08/01 06:19:12;;;;;;;6.30;5.30;;;;;;;29.01;49.83;99824.13;1744606;82;21255;-83
2021/08/01 06:22:17;;;;;;;12.53;5.53;;;;;;;29.13;49.57;99825.63;1754705;82;21920;-82
2021/08/01 06:25:23;;;;;;;6.45;4.87;;;;;;;29.22;48.55;99821.77;1744756;82;21298;-82
2021/08/01 06:28:28;;;;;;;5.70;5.08;;;;;;;29.44;48.44;99825.83;1754790;82;21306;-82
2021/08/01 06:31:34;;;;;;;9.03;4.90;;;;;;;29.44;48.44;99825.83;1744435;82;21394;-83
2021/08/01 06:34:41;;;;;;;6.75;5.03;;;;;;;29.53;47.82;99829.58;1754043;82;21329;-82
2021/08/01 06:37:47;;;;;;;12.68;4.08;;;;;;;29.62;46.85;99829.13;1743182;82;21195;-82
2021/08/01 06:40:52;;;;;;;8.95;4.25;;;;;;;29.76;45.19;99828.54;1744597;82;21858;-82
2021/08/01 06:43:58;;;;;;;7.83;4.30;;;;;;;29.90;45.83;99829.92;1754269;82;21176;-82
2021/08/01 06:47:03;;;;;;;14.07;5.08;;;;;;;30.05;44.91;99831.55;1744160;82;21386;-82
2021/08/01 06:50:10;;;;;;;6.33;4.85;;;;;;;30.18;43.26;99830.72;1753271;82;21198;-82
2021/08/01 06:53:15;;;;;;;6.37;4.67;;;;;;;30.27;43.38;99827.39;1744620;82;21601;-82
2021/08/01 06:56:21;;;;;;;6.92;5.00;;;;;;;30.40;43.52;99834.14;1754730;82;21925;-82
2021/08/01 06:59:26;;;;;;;9.90;5.10;;;;;;;30.51;43.05;99832.73;1744532;82;21304;-83
2021/08/01 07:02:24;;;;;;;8.10;5.05;;;;;;;30.70;43.60;99833.94;1753921;82;21325;-82
2021/08/01 07:05:17;;;;;;;6.42;5.00;;;;;;;30.84;42.63;99840.13;1743805;82;21315;-82
2021/08/01 07:08:22;;;;;;;;;;;;;;;30.90;42.35;99836.00;1757588;82;21838;-82
2021/08/01 07:11:27;;;;;;;9.88;5.05;;;;;;;31.00;43.55;99839.37;1754938;82;20275;-82
2021/08/01 07:14:34;;;;;;;6.30;4.80;;;;;;;31.09;42.37;99835.18;1744432;82;21394;-82
2021/08/01 07:17:39;;;;;;;8.05;4.95;;;;;;;31.12;41.84;99838.78;1745851;82;21326;-82
2021/08/01 07:20:45;;;;;;;15.68;5.08;;;;;;;31.01;41.77;99837.41;1747186;82;21303;-82
2021/08/01 07:23:49;;;;;;;5.90;4.70;;;;;;;30.87;40.60;99837.49;1745517;82;21746;-82
2021/08/01 07:26:56;;;;;;;6.78;5.12;;;;;;;30.86;41.14;99838.63;1747069;82;21164;-82
2021/08/01 07:30:01;;;;;;;9.43;5.15;;;;;;;30.87;40.65;99829.60;1746805;82;21239;-82
2021/08/01 07:33:07;;;;;;;10.18;5.60;;;;;;;30.78;41.44;99833.20;1746148;82;21314;-82
2021/08/01 07:36:12;;;;;;;9.48;5.97;;;;;;;30.82;40.82;99834.80;1745332;82;21192;-82
2021/08/01 07:39:19;;;;;;;11.15;4.97;;;;;;;30.87;40.49;99835.25;1746998;82;21858;-82
2021/08/01 07:42:24;;;;;;;9.45;5.90;;;;;;;30.80;40.14;99832.28;1746761;82;21878;-82
2021/08/01 07:45:38;;;;;;;11.28;6.28;;;;;;;30.86;40.31;99833.55;1745962;82;21294;-82
2021/08/01 07:48:42;;;;;;;13.68;7.22;;;;;;;30.86;40.79;99837.21;1745746;82;21326;-82
2021/08/01 07:51:48;;;;;;;9.08;6.00;;;;;;;30.86;41.20;99840.62;1724539;82;21307;-82
2021/08/01 07:54:54;;;;;;;9.68;6.37;;;;;;;30.93;41.04;99831.95;1746555;82;21699;-82
2021/08/01 07:57:58;;;;;;;12.53;7.22;;;;;;;30.95;41.88;99828.22;1746844;82;21783;-82
2021/08/01 08:01:04;;;;;;;20.97;6.67;;;;;;;30.96;40.59;99836.97;1746246;81;21322;-82
2021/08/01 08:04:11;;;;;;;10.72;6.67;;;;;;;31.04;40.45;99831.09;1745755;82;21274;-82
2021/08/01 08:07:16;;;;;;;11.63;7.72;;;;;;;31.20;40.96;99837.17;1746803;82;21228;-82
2021/08/01 08:10:22;;;;;;;13.70;5.87;;;;;;;31.24;40.17;99843.80;1745309;82;21826;-82
2021/08/01 08:13:30;;;;;;;13.48;5.72;;;;;;;31.22;40.49;99836.25;1746772;82;21302;-82
2021/08/01 08:16:36;;;;;;;7.55;5.30;;;;;;;31.24;40.00;99843.26;1739877;82;21608;-82
2021/08/01 08:19:41;;;;;;;5.95;4.47;;;;;;;31.22;38.44;99844.14;1735016;82;21323;-82
2021/08/01 08:22:47;;;;;;;11.43;5.12;;;;;;;31.21;38.31;99838.83;1736167;82;21826;-82
2021/08/01 08:25:54;;;;;;;11.03;6.10;;;;;;;31.13;38.52;99846.09;1735704;82;21303;-82
2021/08/01 08:28:59;;;;;;;7.67;5.80;;;;;;;31.13;38.07;99839.61;1736201;82;21728;-82
2021/08/01 08:32:05;;;;;;;6.03;5.12;;;;;;;31.15;37.96;99842.93;1735071;82;22632;-82
2021/08/01 08:35:12;;;;;;;4.40;3.70;;;;;;;31.13;37.55;99833.96;1734966;82;21394;-82
2021/08/01 08:38:18;;;;;;;7.70;4.90;;;;;;;31.23;38.34;99833.09;1736448;82;21282;-82
2021/08/01 08:41:23;;;;;;;9.25;5.45;;;;;;;31.26;36.69;99830.20;1736262;82;21302;-82
2021/08/01 08:44:29;;;;;;;9.43;5.47;;;;;;;31.33;37.38;99829.17;1736180;82;21405;-82
2021/08/01 08:47:37;;;;;;;7.83;5.50;;;;;;;31.39;38.03;99832.71;1736446;82;21298;-82
2021/08/01 08:50:42;;;;;;;9.35;5.97;;;;;;;31.42;39.24;99833.45;1736117;82;21235;-82
2021/08/01 08:53:57;;;;;;;11.93;5.90;;;;;;;31.35;37.50;99833.94;1736138;82;21351;-82
2021/08/01 08:57:03;;;;;;;9.40;6.08;;;;;;;31.35;37.78;99831.11;1735183;82;21374;-82
2021/08/01 09:00:14;;;;;;;7.80;6.10;;;;;;;31.41;38.60;99831.78;1735088;81;21370;-82
2021/08/01 09:03:19;;;;;;;7.28;5.58;;;;;;;31.36;39.84;99831.36;1736375;82;21794;-83
2021/08/01 09:06:25;;;;;;;12.47;5.15;;;;;;;31.34;38.65;99826.63;1735526;82;21303;-82
2021/08/01 09:09:30;;;;;;;8.73;5.60;;;;;;;31.27;37.97;99829.08;1736342;82;21323;-82
2021/08/01 09:12:35;;;;;;;7.92;4.87;;;;;;;31.33;37.42;99824.94;1736214;82;21938;-82
2021/08/01 09:15:41;;;;;;;8.83;4.90;;;;;;;31.46;38.24;99828.81;1736043;82;21331;-82
2021/08/01 09:18:46;;;;;;;9.50;4.97;;;;;;;31.39;37.85;99836.95;1739787;82;21318;-82
2021/08/01 09:21:52;;;;;;;7.85;5.17;;;;;;;31.24;38.31;99830.55;1700509;84;21323;-83
2021/08/01 09:24:59;;;;;;;8.65;5.25;;;;;;;31.23;38.85;99830.84;1743666;82;21192;-82
2021/08/01 09:28:26;;;;;;;7.70;5.03;;;;;;;31.30;37.94;99833.50;1743556;82;21890;-83
2021/08/01 09:31:31;;;;;;;10.45;5.83;;;;;;;31.30;37.84;99834.91;1686266;82;21361;-82
2021/08/01 09:34:37;;;;;;;9.43;5.28;;;;;;;31.28;38.02;99840.03;1743422;82;21325;-82
2021/08/01 09:37:43;;;;;;;7.22;5.42;;;;;;;31.20;38.16;99836.59;1742320;82;21338;-82
2021/08/01 09:40:49;;;;;;;9.58;4.97;;;;;;;31.21;38.68;99833.17;1742432;82;21338;-82
2021/08/01 09:44:04;;;;;;;11.53;5.28;;;;;;;31.20;38.56;99835.75;1742201;82;21239;-82
2021/08/01 09:47:10;;;;;;;11.48;4.83;;;;;;;31.20;38.33;99829.52;1743175;82;21342;-82
2021/08/01 09:50:17;;;;;;;8.05;4.70;;;;;;;31.28;38.33;99822.26;1743648;82;21180;-82
2021/08/01 09:53:23;;;;;;;9.08;4.75;;;;;;;31.39;38.06;99822.82;1743683;82;21314;-82
2021/08/01 09:56:28;;;;;;;22.48;5.97;;;;;;;31.43;38.76;99814.77;1742294;82;21370;-82
2021/08/01 09:59:37;;;;;;;13.22;5.40;;;;;;;31.35;39.11;99818.98;1743414;82;21303;-82
2021/08/01 10:02:48;;;;;;;8.48;5.30;;;;;;;31.22;38.87;99820.13;1744545;82;21807;-82
2021/08/01 10:05:53;;;;;;;7.67;5.10;;;;;;;31.21;39.71;99819.88;1743742;82;21240;-82
2021/08/01 10:09:00;;;;;;;8.50;4.90;;;;;;;31.24;40.34;99813.59;1719646;82;21355;-82
2021/08/01 10:12:01;;;;;;;10.50;5.80;;;;;;;31.25;39.24;99810.19;1743938;82;21291;-82
2021/08/01 10:15:08;;;;;;;17.37;6.53;;;;;;;31.25;38.58;99813.02;1742161;82;21342;-82
2021/08/01 10:18:13;;;;;;;8.03;5.53;;;;;;;31.30;39.00;99812.31;1716264;81;21330;-82
2021/08/01 10:21:24;;;;;;;9.03;5.37;;;;;;;31.33;39.06;99807.16;1733400;83;21838;-82
2021/08/01 10:24:46;;;;;;;16.65;6.60;;;;;;;31.28;38.50;99802.48;1733608;83;21200;-83
2021/08/01 10:27:56;;;;;;;14.53;7.62;;;;;;;31.33;39.73;99802.91;1732488;83;21838;-82
2021/08/01 10:31:01;;;;;;;17.42;7.35;;;;;;;31.39;40.20;99799.62;1733761;83;21494;-82
2021/08/01 10:34:18;;;;;;;7.05;4.95;;;;;;;31.48;40.08;99795.42;1733557;83;21189;-82
2021/08/01 10:37:33;;;;;;;10.55;4.70;;;;;;;31.57;39.24;99796.25;1731979;83;21878;-82
2021/08/01 10:40:41;;;;;;;14.90;6.33;;;;;;;31.60;39.78;99785.71;1733126;83;21862;-82
2021/08/01 10:43:47;;;;;;;11.97;6.70;;;;;;;31.61;39.38;99788.78;1733234;83;21914;-82
2021/08/01 10:46:52;;;;;;;10.95;6.50;;;;;;;31.54;39.14;99785.03;1732334;83;21311;-82
2021/08/01 10:49:58;;;;;;;19.57;7.45;;;;;;;31.50;39.02;99781.78;1732056;83;21370;-82
2021/08/01 10:53:32;;;;;;;13.75;6.90;;;;;;;31.51;39.01;99782.03;1733630;83;21302;-82
2021/08/01 10:56:41;;;;;;;21.05;9.03;;;;;;;31.61;38.54;99778.06;1732006;82;21196;-82
2021/08/01 10:59:57;;;;;;;17.98;8.23;;;;;;;31.74;38.50;99773.68;1733528;83;21561;-82
2021/08/01 11:03:08;;;;;;;13.78;6.10;;;;;;;31.80;37.06;99768.69;1733326;83;21378;-82
2021/08/01 11:06:34;;;;;;;13.95;7.85;;;;;;;31.86;36.55;99776.48;1726869;83;21811;-82
2021/08/01 11:09:40;;;;;;;13.60;7.28;;;;;;;31.86;38.21;99776.48;1732843;83;21330;-82
2021/08/01 11:12:46;;;;;;;9.08;5.85;;;;;;;31.92;38.28;99777.39;1733510;83;21595;-83
2021/08/01 11:15:55;;;;;;;18.35;7.60;;;;;;;32.00;38.05;99778.58;1731738;83;21212;-82
2021/08/01 11:19:00;;;;;;;7.80;5.87;;;;;;;32.00;37.14;99774.33;1733560;81;21353;-82
2021/08/01 11:22:05;;;;;;;10.23;6.50;;;;;;;31.96;38.25;99778.98;1731942;83;21236;-83
2021/08/01 11:25:44;;;;;;;12.30;6.58;;;;;;;31.91;36.77;99772.08;1732421;83;21331;-82
2021/08/01 11:28:49;;;;;;;12.40;6.70;;;;;;;31.70;37.63;99775.50;1732458;83;21302;-82
2021/08/01 11:32:13;;;;;;;10.50;6.78;;;;;;;31.44;37.82;99771.80;1733451;83;21235;-82
2021/08/01 11:35:25;;;;;;;12.50;6.20;;;;;;;31.49;38.04;99780.13;1733194;83;21303;-83
2021/08/01 11:38:30;;;;;;;10.58;6.22;;;;;;;31.58;38.72;99772.50;1731892;83;21827;-82
2021/08/01 11:41:39;;;;;;;13.50;6.03;;;;;;;31.55;39.81;99773.15;1732012;83;21306;-82
2021/08/01 11:45:04;;;;;;;;;;;;;;;31.34;39.76;99774.36;1735901;83;21303;-82
2021/08/01 11:48:10;;;;;;;13.72;6.33;;;;;;;31.14;39.45;99771.48;1731972;83;20304;-82
2021/08/01 11:51:16;;;;;;;9.35;5.92;;;;;;;31.01;40.48;99764.81;1731981;83;21205;-82
2021/08/01 11:54:22;;;;;;;10.30;5.85;;;;;;;30.92;41.27;99768.17;1733368;83;21351;-83
2021/08/01 11:57:27;;;;;;;9.78;6.33;;;;;;;30.75;39.63;99761.85;1733849;83;21323;-83
2021/08/01 12:00:32;;;;;;;14.83;6.47;;;;;;;30.63;40.18;99765.84;1733046;81;21334;-83
2021/08/01 12:03:37;;;;;;;9.53;5.80;;;;;;;30.62;40.30;99768.96;1733529;83;21862;-82
2021/08/01 12:06:51;;;;;;;11.08;5.62;;;;;;;30.77;41.02;99768.02;1733298;83;21311;-82
2021/08/01 12:09:57;;;;;;;9.78;5.55;;;;;;;30.95;41.50;99768.09;1732065;83;21775;-82
2021/08/01 12:13:04;;;;;;;9.13;5.08;;;;;;;31.08;41.20;99760.09;1733512;83;21248;-82
2021/08/01 12:16:12;;;;;;;11.68;5.70;;;;;;;31.18;39.89;99766.86;1733225;83;21303;-82
2021/08/01 12:19:27;;;;;;;11.43;5.60;;;;;;;31.26;39.65;99767.48;1731816;83;21219;-82
2021/08/01 12:22:31;;;;;;;20.32;5.85;;;;;;;31.27;40.97;99761.27;1701821;84;21268;-83
2021/08/01 12:25:38;;;;;;;9.48;5.78;;;;;;;31.24;40.43;99765.56;1687653;85;21382;-82
2021/08/01 12:28:46;;;;;;;9.35;5.50;;;;;;;31.13;39.79;99764.18;1669894;86;22548;-83
2021/08/01 12:31:52;;;;;;;8.90;6.10;;;;;;;31.04;39.44;99757.67;1688225;85;21305;-83
2021/08/01 12:35:10;;;;;;;14.95;5.95;;;;;;;30.99;40.17;99766.28;1699396;84;21316;-82
2021/08/01 12:38:15;;;;;;;11.90;5.87;;;;;;;30.95;40.91;99763.27;1700808;84;21315;-83
2021/08/01 12:41:21;;;;;;;16.23;7.15;;;;;;;30.95;40.66;99768.09;1699875;84;21347;-82
2021/08/01 12:44:27;;;;;;;8.43;6.70;;;;;;;30.90;40.11;99760.59;1700643;84;21380;-82
2021/08/01 12:47:33;;;;;;;9.53;6.70;;;;;;;30.90;41.09;99760.59;1700732;84;21205;-82
2021/08/01 12:50:43;;;;;;;12.63;6.30;;;;;;;30.98;39.60;99762.63;1701590;84;21372;-82
2021/08/01 12:53:47;;;;;;;10.95;7.30;;;;;;;31.05;39.77;99764.97;1701302;84;21839;-82
2021/08/01 12:57:15;;;;;;;12.60;6.55;;;;;;;31.11;39.20;99760.03;1699862;84;21384;-82
2021/08/01 13:00:29;;;;;;;13.93;6.70;;;;;;;31.18;38.62;99751.32;1701723;83;21360;-82
2021/08/01 13:03:44;;;;;;;12.10;6.50;;;;;;;31.29;38.67;99755.56;1701209;84;21320;-82
2021/08/01 13:06:51;;;;;;;12.65;7.50;;;;;;;31.35;39.41;99741.28;1699595;84;21729;-83
2021/08/01 13:10:08;;;;;;;15.20;7.85;;;;;;;31.37;38.29;99748.25;1700361;84;21320;-82
2021/08/01 13:13:19;;;;;;;11.48;7.65;;;;;;;31.33;38.05;99746.41;1685035;84;21257;-82
2021/08/01 13:16:24;;;;;;;11.03;6.90;;;;;;;31.27;37.71;99747.98;1701379;84;21182;-82
2021/08/01 13:19:31;;;;;;;11.95;7.62;;;;;;;31.20;38.74;99749.02;1701173;84;21241;-82
2021/08/01 13:22:41;;;;;;;12.50;6.72;;;;;;;31.08;38.19;99745.14;1686651;84;21957;-82
2021/08/01 13:25:47;;;;;;;12.78;7.65;;;;;;;30.99;38.91;99743.69;1682088;85;21327;-82
2021/08/01 13:29:01;;;;;;;12.25;8.33;;;;;;;31.00;39.50;99742.53;1744083;82;21231;-82
2021/08/01 13:32:25;;;;;;;17.52;7.37;;;;;;;31.04;38.93;99743.55;1743573;82;21507;-82
2021/08/01 13:35:34;;;;;;;13.05;7.03;;;;;;;31.11;39.08;99748.73;1743818;82;21822;-82
2021/08/01 13:38:38;;;;;;;16.12;6.40;;;;;;;31.14;38.31;99736.19;1744587;82;21244;-82
2021/08/01 13:41:52;;;;;;;12.85;6.15;;;;;;;31.19;38.53;99740.85;1743969;82;21330;-82
2021/08/01 13:45:00;;;;;;;16.55;7.20;;;;;;;31.24;38.82;99744.38;1743875;82;21303;-82
2021/08/01 13:48:04;;;;;;;;;;;;;;;31.30;39.88;99732.38;1745085;82;21294;-83
2021/08/01 13:51:08;;;;;;;14.80;6.78;;;;;;;31.33;40.65;99734.52;1742605;82;20351;-82
2021/08/01 13:54:13;;;;;;;11.40;6.83;;;;;;;31.30;39.96;99730.38;1743751;82;21290;-82
2021/08/01 13:57:23;;;;;;;13.43;6.87;;;;;;;31.31;39.73;99731.21;1742955;82;21220;-82
2021/08/01 14:00:27;;;;;;;15.98;6.65;;;;;;;31.32;39.60;99730.62;1742866;81;21326;-81
2021/08/01 14:03:33;;;;;;;18.65;7.12;;;;;;;31.28;39.63;99729.86;1743884;82;21370;-82
2021/08/01 14:06:37;;;;;;;15.45;6.87;;;;;;;31.24;39.15;99731.67;1743679;82;21346;-82
2021/08/01 14:09:43;;;;;;;11.73;7.40;;;;;;;31.18;39.88;99723.08;1743860;82;21826;-82
2021/08/01 14:12:49;;;;;;;12.90;7.42;;;;;;;31.15;39.70;99711.59;1742792;82;21763;-82
2021/08/01 14:15:57;;;;;;;14.30;7.28;;;;;;;31.17;40.72;99714.94;1742242;82;21192;-82
2021/08/01 14:19:03;;;;;;;24.12;8.48;;;;;;;31.15;40.17;99713.86;1743616;82;21184;-82
2021/08/01 14:22:10;;;;;;;17.37;8.05;;;;;;;31.12;39.74;99708.03;1745625;81;21184;-82
2021/08/01 14:25:16;;;;;;;12.85;7.15;;;;;;;31.09;41.06;99716.56;1746740;82;21243;-82
2021/08/01 14:28:21;;;;;;;12.82;6.97;;;;;;;31.01;40.73;99713.98;1745543;82;21323;-82
2021/08/01 14:31:27;;;;;;;10.18;6.03;;;;;;;30.98;41.52;99709.56;1745883;82;21306;-82
2021/08/01 14:34:33;;;;;;;8.33;5.97;;;;;;;30.96;40.87;99713.27;1746938;82;21386;-82